Time;durP1;ratioP1;P1;durP2;ratioP2;P2;SDS_P1;SDS_P2;PMS_P1;PMS_P2;Temp;Humidity;BMP_temperature;BMP_pressure;BME280_temperature;BME280_humidity;BME280_pressure;Samples;Min_cycle;Max_cycle;Signal;HPM_P1;HPM_P2
2022/07/23 00:00:56;;;;;;;1.50;0.40;;;;;;;15.07;100.00;100672.25;5071492;28;20186;-75
2022/07/23 00:03:21;;;;;;;1.17;1.17;;;;;;;15.08;100.00;100670.28;5071596;28;20277;-77
2022/07/23 00:05:46;;;;;;;0.13;0.13;;;;;;;15.14;100.00;100666.19;5071554;28;20179;-78
2022/07/23 00:08:12;;;;;;;0.20;0.20;;;;;;;15.21;100.00;100657.41;5070500;28;20198;-77
2022/07/23 00:10:38;;;;;;;0.27;0.27;;;;;;;15.23;100.00;100658.66;5070182;28;20182;-78
2022/07/23 00:13:03;;;;;;;0.20;0.20;;;;;;;15.19;100.00;100666.00;5069939;28;20175;-77
2022/07/23 00:15:28;;;;;;;0.23;0.23;;;;;;;15.14;100.00;100668.94;5071264;28;20991;-78
2022/07/23 00:17:54;;;;;;;0.00;0.00;;;;;;;15.17;100.00;100660.00;5069651;28;20178;-78
2022/07/23 00:20:20;;;;;;;0.20;0.20;;;;;;;15.19;100.00;100655.00;5071257;28;20201;-78
2022/07/23 00:22:50;;;;;;;0.00;0.00;;;;;;;15.25;100.00;100655.59;5071359;28;20178;-78
2022/07/23 00:25:15;;;;;;;0.00;0.00;;;;;;;15.27;100.00;100658.78;5071196;28;20202;-77
2022/07/23 00:27:41;;;;;;;0.00;0.00;;;;;;;15.31;100.00;100654.22;5070272;28;20360;-78
2022/07/23 00:30:07;;;;;;;0.00;0.00;;;;;;;15.38;100.00;100657.25;5069509;28;20210;-79
2022/07/23 00:32:52;;;;;;;0.00;0.00;;;;;;;15.44;100.00;100666.88;5069806;28;20170;-78
2022/07/23 00:35:20;;;;;;;0.00;0.00;;;;;;;15.44;100.00;100669.66;5071102;28;20611;-77
2022/07/23 00:37:46;;;;;;;0.00;0.00;;;;;;;15.45;100.00;100660.25;5069575;28;20192;-78
2022/07/23 00:40:11;;;;;;;0.00;0.00;;;;;;;15.48;100.00;100656.84;5069274;28;20791;-78
2022/07/23 00:42:37;;;;;;;0.00;0.00;;;;;;;15.50;100.00;100660.03;5071053;28;20174;-78
2022/07/23 00:45:03;;;;;;;0.00;0.00;;;;;;;15.46;100.00;100659.09;5069701;28;20270;-78
2022/07/23 00:47:29;;;;;;;0.53;0.53;;;;;;;15.34;100.00;100665.38;5069552;28;20672;-77
2022/07/23 00:49:54;;;;;;;0.30;0.30;;;;;;;15.18;100.00;100662.41;5069180;28;20269;-77
2022/07/23 00:52:20;;;;;;;0.23;0.23;;;;;;;15.10;100.00;100666.06;5069616;28;20618;-78
2022/07/23 00:54:45;;;;;;;1.33;1.33;;;;;;;15.04;100.00;100669.34;5070710;28;20602;-77
2022/07/23 00:57:10;;;;;;;0.00;0.00;;;;;;;14.95;100.00;100663.13;5070577;28;20587;-78
2022/07/23 00:59:38;;;;;;;0.10;0.10;;;;;;;14.87;100.00;100660.06;5070761;28;20205;-78
2022/07/23 01:02:03;;;;;;;0.23;0.23;;;;;;;14.82;100.00;100668.53;5069434;28;20174;-78
2022/07/23 01:04:29;;;;;;;0.33;0.33;;;;;;;14.80;100.00;100662.56;5070843;28;20576;-78
2022/07/23 01:06:54;;;;;;;0.20;0.20;;;;;;;14.79;100.00;100665.66;5069498;28;20210;-77
2022/07/23 01:09:20;;;;;;;0.17;0.17;;;;;;;14.76;100.00;100669.09;5069206;28;20265;-77
2022/07/23 01:11:46;;;;;;;0.23;0.17;;;;;;;14.73;100.00;100661.47;5069415;28;20265;-77
2022/07/23 01:14:17;;;;;;;0.00;0.00;;;;;;;14.77;100.00;100651.44;5070179;28;20614;-77
2022/07/23 01:16:45;;;;;;;0.00;0.00;;;;;;;14.83;100.00;100639.88;5070129;28;20166;-77
2022/07/23 01:19:10;;;;;;;0.00;0.00;;;;;;;14.67;100.00;100629.81;5070176;28;20186;-75
2022/07/23 01:21:40;;;;;;;0.00;0.00;;;;;;;14.58;100.00;100640.88;5071282;28;20178;-75
2022/07/23 01:24:06;;;;;;;0.00;0.00;;;;;;;14.75;100.00;100643.50;5072051;28;20197;-76
2022/07/23 01:26:31;;;;;;;0.00;0.00;;;;;;;14.89;100.00;100637.72;5069373;28;20631;-75
2022/07/23 01:28:57;;;;;;;0.00;0.00;;;;;;;14.95;100.00;100630.09;5070265;28;20205;-75
2022/07/23 01:31:22;;;;;;;0.00;0.00;;;;;;;15.01;100.00;100618.53;5070563;28;20181;-75
2022/07/23 01:33:48;;;;;;;0.00;0.00;;;;;;;15.07;100.00;100621.91;5070569;28;20171;-75
2022/07/23 01:36:14;;;;;;;0.00;0.00;;;;;;;15.13;100.00;100612.28;5070493;28;20178;-75
2022/07/23 01:38:39;;;;;;;0.00;0.00;;;;;;;15.15;100.00;100613.56;5071677;28;20182;-76
2022/07/23 01:41:05;;;;;;;0.00;0.00;;;;;;;15.18;100.00;100618.38;5074643;28;20269;-76
2022/07/23 01:43:30;;;;;;;0.00;0.00;;;;;;;15.06;100.00;100620.28;5074319;28;20654;-77
2022/07/23 01:45:56;;;;;;;0.00;0.00;;;;;;;14.81;100.00;100630.38;5074266;28;20179;-77
2022/07/23 01:48:21;;;;;;;0.13;0.13;;;;;;;14.65;100.00;100619.16;5073856;28;20594;-76
2022/07/23 01:50:47;;;;;;;0.00;0.00;;;;;;;14.64;100.00;100612.03;5072614;28;20204;-76
2022/07/23 01:53:14;;;;;;;0.00;0.00;;;;;;;14.56;100.00;100607.41;5074216;28;20171;-75
2022/07/23 01:55:39;;;;;;;0.00;0.00;;;;;;;14.45;100.00;100609.72;5073989;28;20464;-76
2022/07/23 01:58:05;;;;;;;0.00;0.00;;;;;;;14.27;100.00;100621.94;5073761;28;20690;-76
2022/07/23 02:00:31;;;;;;;0.00;0.00;;;;;;;14.15;100.00;100611.66;5073981;28;20860;-75
2022/07/23 02:02:58;;;;;;;0.00;0.00;;;;;;;14.08;100.00;100602.31;5072737;28;20175;-77
2022/07/23 02:05:23;;;;;;;0.17;0.17;;;;;;;14.03;100.00;100619.78;5073871;28;20530;-75
2022/07/23 02:07:48;;;;;;;1.17;1.17;;;;;;;13.90;100.00;100618.09;5071781;28;20252;-75
2022/07/23 02:10:14;;;;;;;0.60;0.60;;;;;;;13.82;100.00;100632.66;5072267;28;20174;-75
2022/07/23 02:12:39;;;;;;;0.20;0.20;;;;;;;13.80;100.00;100632.16;5073720;28;20178;-76
2022/07/23 02:15:06;;;;;;;0.10;0.10;;;;;;;13.86;100.00;100630.84;5073670;28;20178;-76
2022/07/23 02:17:31;;;;;;;0.07;0.07;;;;;;;13.88;100.00;100623.06;5073448;28;20285;-74
2022/07/23 02:19:56;;;;;;;0.00;0.00;;;;;;;13.94;100.00;100616.28;5072064;28;20261;-75
2022/07/23 02:22:22;;;;;;;0.73;0.73;;;;;;;13.98;100.00;100604.31;5072261;28;20266;-76
2022/07/23 02:24:47;;;;;;;2.00;1.90;;;;;;;13.98;100.00;100625.47;5073823;28;20178;-75
2022/07/23 02:27:12;;;;;;;0.73;0.73;;;;;;;13.97;100.00;100621.91;5071885;28;20604;-76
2022/07/23 02:29:38;;;;;;;0.00;0.00;;;;;;;14.02;100.00;100614.63;5073103;28;20638;-74
2022/07/23 02:32:03;;;;;;;1.40;1.13;;;;;;;14.05;100.00;100620.28;5073633;28;20572;-76
2022/07/23 02:34:29;;;;;;;0.17;0.17;;;;;;;14.05;100.00;100619.47;5071994;28;20635;-76
2022/07/23 02:36:54;;;;;;;18.07;1.47;;;;;;;14.05;100.00;100611.25;5073217;28;20162;-77
2022/07/23 02:39:19;;;;;;;0.87;0.87;;;;;;;14.06;100.00;100621.91;5071799;28;20201;-77
2022/07/23 02:41:45;;;;;;;1.63;1.53;;;;;;;14.08;100.00;100633.34;5072886;28;20189;-77
2022/07/23 02:44:10;;;;;;;2.47;2.20;;;;;;;14.09;100.00;100634.16;5071859;28;20194;-78
2022/07/23 02:46:35;;;;;;;0.63;0.63;;;;;;;14.09;100.00;100640.47;5072905;28;20183;-76
2022/07/23 02:49:01;;;;;;;0.10;0.10;;;;;;;14.12;100.00;100628.81;5072629;28;20253;-78
2022/07/23 02:51:26;;;;;;;0.00;0.00;;;;;;;14.15;100.00;100625.38;5072200;28;20184;-78
2022/07/23 02:53:52;;;;;;;1.07;1.03;;;;;;;14.17;100.00;100625.84;5072810;28;20218;-76
2022/07/23 02:56:17;;;;;;;0.97;0.67;;;;;;;14.19;100.00;100620.06;5072911;28;20630;-77
2022/07/23 02:58:43;;;;;;;0.60;0.60;;;;;;;14.19;100.00;100620.88;5071101;28;20622;-77
2022/07/23 03:01:08;;;;;;;1.10;1.00;;;;;;;14.24;100.00;100622.59;5071291;28;20175;-78
2022/07/23 03:03:34;;;;;;;0.37;0.37;;;;;;;14.28;100.00;100613.34;5072800;28;20300;-78
2022/07/23 03:05:59;;;;;;;1.00;1.00;;;;;;;14.32;100.00;100613.53;5072642;28;20183;-77
2022/07/23 03:08:25;;;;;;;0.63;0.63;;;;;;;14.30;100.00;100624.03;5071790;28;20198;-77
2022/07/23 03:10:50;;;;;;;1.80;0.57;;;;;;;14.29;100.00;100619.66;5071222;28;20182;-77
2022/07/23 03:13:16;;;;;;;0.87;0.87;;;;;;;14.29;100.00;100623.22;5072723;28;20171;-78
2022/07/23 03:15:41;;;;;;;0.50;0.50;;;;;;;14.33;100.00;100625.31;5071177;28;20183;-78
2022/07/23 03:18:07;;;;;;;0.10;0.10;;;;;;;14.30;100.00;100618.53;5070678;28;20212;-79
2022/07/23 03:20:32;;;;;;;0.00;0.00;;;;;;;14.36;100.00;100619.97;5072406;28;20170;-78
2022/07/23 03:22:57;;;;;;;0.57;0.57;;;;;;;14.36;100.00;100611.72;5072413;28;20614;-77
2022/07/23 03:25:23;;;;;;;0.33;0.33;;;;;;;14.38;100.00;100611.38;5072344;28;20167;-78
2022/07/23 03:27:48;;;;;;;1.00;0.67;;;;;;;14.35;100.00;100610.09;5070724;28;20202;-77
2022/07/23 03:30:14;;;;;;;0.07;0.07;;;;;;;14.32;100.00;100612.69;5071961;28;20711;-78
2022/07/23 03:32:39;;;;;;;5.00;1.43;;;;;;;14.32;100.00;100609.94;5070917;28;20174;-76
2022/07/23 03:35:05;;;;;;;0.03;0.03;;;;;;;14.36;100.00;100605.41;5072203;28;20639;-77
2022/07/23 03:37:30;;;;;;;0.10;0.10;;;;;;;14.36;100.00;100594.41;5070554;28;20182;-77
2022/07/23 03:39:55;;;;;;;0.00;0.00;;;;;;;14.34;100.00;100592.00;5072194;28;20221;-76
2022/07/23 03:42:21;;;;;;;0.80;0.80;;;;;;;14.33;100.00;100604.13;5072052;28;20633;-76
2022/07/23 03:44:46;;;;;;;0.53;0.53;;;;;;;14.36;100.00;100597.97;5071874;28;20522;-78
2022/07/23 03:47:12;;;;;;;0.00;0.00;;;;;;;14.39;100.00;100591.00;5070448;28;20518;-78
2022/07/23 03:49:37;;;;;;;0.53;0.53;;;;;;;14.35;100.00;100596.38;5070323;28;20666;-77
2022/07/23 03:52:03;;;;;;;0.30;0.30;;;;;;;14.33;100.00;100582.16;5071857;28;20170;-77
2022/07/23 03:54:28;;;;;;;1.50;1.03;;;;;;;14.32;100.00;100580.53;5070500;28;20724;-77
2022/07/23 03:56:54;;;;;;;0.30;0.30;;;;;;;14.26;100.00;100592.84;5071650;28;20265;-77
2022/07/23 03:59:19;;;;;;;0.10;0.10;;;;;;;14.23;100.00;100593.53;5071611;28;20179;-76
2022/07/23 04:01:44;;;;;;;0.90;0.90;;;;;;;14.19;100.00;100609.06;5071608;28;20257;-76
2022/07/23 04:04:10;;;;;;;0.27;0.27;;;;;;;14.14;100.00;100601.78;5071653;28;20641;-76
2022/07/23 04:06:35;;;;;;;0.10;0.10;;;;;;;14.09;100.00;100598.44;5070099;28;20171;-76
2022/07/23 04:09:01;;;;;;;0.00;0.00;;;;;;;14.11;100.00;100593.41;5069385;28;20348;-78
2022/07/23 04:11:27;;;;;;;0.00;0.00;;;;;;;14.16;100.00;100602.28;5070208;28;20260;-77
2022/07/23 04:13:52;;;;;;;0.00;0.00;;;;;;;14.22;100.00;100591.91;5069990;28;20269;-77
2022/07/23 04:16:18;;;;;;;0.03;0.03;;;;;;;14.25;100.00;100583.81;5071283;28;20186;-77
2022/07/23 04:18:43;;;;;;;0.10;0.10;;;;;;;14.25;100.00;100589.28;5069713;28;20171;-76
2022/07/23 04:21:08;;;;;;;0.00;0.00;;;;;;;14.28;100.00;100588.63;5071149;28;20642;-78
2022/07/23 04:23:34;;;;;;;0.20;0.20;;;;;;;14.31;100.00;100598.13;5071105;28;20257;-77
2022/07/23 04:25:59;;;;;;;0.00;0.00;;;;;;;14.37;100.00;100599.56;5071104;28;20668;-77
2022/07/23 04:28:24;;;;;;;0.37;0.37;;;;;;;14.41;100.00;100586.78;5070668;28;20742;-77
2022/07/23 04:30:50;;;;;;;0.00;0.00;;;;;;;14.43;100.00;100580.94;5069779;28;20179;-77
2022/07/23 04:33:15;;;;;;;0.10;0.10;;;;;;;14.47;100.00;100587.44;5069089;28;20269;-78
2022/07/23 04:35:41;;;;;;;0.00;0.00;;;;;;;14.54;100.00;100584.94;5070990;28;20183;-77
2022/07/23 04:38:06;;;;;;;0.00;0.00;;;;;;;14.59;100.00;100596.53;5068910;28;20182;-77
2022/07/23 04:40:31;;;;;;;0.10;0.10;;;;;;;14.56;100.00;100612.91;5071001;28;20190;-77
2022/07/23 04:42:57;;;;;;;0.00;0.00;;;;;;;14.56;100.00;100608.22;5069455;28;20186;-77
2022/07/23 04:45:25;;;;;;;0.00;0.00;;;;;;;14.55;100.00;100623.09;5069514;28;20201;-77
2022/07/23 04:47:50;;;;;;;0.00;0.00;;;;;;;14.54;100.00;100626.19;5070502;28;20260;-77
2022/07/23 04:50:21;;;;;;;0.00;0.00;;;;;;;14.53;100.00;100621.81;5070842;28;20186;-78
2022/07/23 04:52:46;;;;;;;0.50;0.50;;;;;;;14.55;100.00;100616.78;5070955;28;20163;-77
2022/07/23 04:55:11;;;;;;;0.00;0.00;;;;;;;14.55;100.00;100617.59;5070648;28;20174;-78
2022/07/23 04:57:37;;;;;;;0.10;0.10;;;;;;;14.50;100.00;100628.00;5069349;28;20888;-77
2022/07/23 05:00:04;;;;;;;0.40;0.40;;;;;;;14.43;100.00;100622.97;5070528;28;20206;-77
2022/07/23 05:02:29;;;;;;;1.00;1.00;;;;;;;14.37;100.00;100632.56;5070648;28;20177;-78
2022/07/23 05:04:55;;;;;;;0.67;0.67;;;;;;;14.29;100.00;100625.16;5070501;28;20183;-78
2022/07/23 05:07:20;;;;;;;0.00;0.00;;;;;;;14.22;100.00;100631.19;5069867;28;20202;-78
2022/07/23 05:09:45;;;;;;;0.30;0.30;;;;;;;14.20;100.00;100622.47;5069092;28;20178;-77
2022/07/23 05:12:12;;;;;;;2.10;1.57;;;;;;;14.17;100.00;100622.31;5069542;28;20213;-77
2022/07/23 05:14:37;;;;;;;1.07;1.07;;;;;;;14.16;100.00;100621.50;5076776;28;20186;-77
2022/07/23 05:17:02;;;;;;;0.50;0.50;;;;;;;14.15;100.00;100628.13;5075662;28;20687;-78
2022/07/23 05:19:28;;;;;;;0.20;0.20;;;;;;;14.17;100.00;100617.63;5075563;28;20209;-78
2022/07/23 05:21:53;;;;;;;0.00;0.00;;;;;;;14.20;100.00;100627.16;5077181;28;20254;-78
2022/07/23 05:24:19;;;;;;;0.00;0.00;;;;;;;14.20;100.00;100622.47;5075835;28;20174;-79
2022/07/23 05:26:44;;;;;;;0.20;0.20;;;;;;;14.26;100.00;100626.63;5075712;28;20182;-76
2022/07/23 05:29:09;;;;;;;0.50;0.50;;;;;;;14.35;100.00;100620.28;5075354;28;20228;-78
2022/07/23 05:31:35;;;;;;;0.50;0.50;;;;;;;14.43;100.00;100622.16;5075888;28;20189;-77
2022/07/23 05:34:00;;;;;;;0.00;0.00;;;;;;;14.48;100.00;100620.09;5075678;28;20182;-78
2022/07/23 05:36:26;;;;;;;0.00;0.00;;;;;;;14.63;100.00;100624.19;5075753;28;20549;-77
2022/07/23 05:38:51;;;;;;;0.00;0.00;;;;;;;14.77;100.00;100619.22;5076837;28;20216;-77
2022/07/23 05:41:16;;;;;;;0.37;0.37;;;;;;;14.83;100.00;100631.63;5075544;28;20588;-78
2022/07/23 05:43:42;;;;;;;0.23;0.23;;;;;;;14.93;100.00;100630.44;5075448;28;20247;-77
2022/07/23 05:46:07;;;;;;;0.43;0.43;;;;;;;14.97;100.00;100627.81;5075792;28;20184;-78
2022/07/23 05:48:32;;;;;;;0.60;0.60;;;;;;;14.94;100.00;100628.50;5076370;28;20228;-78
2022/07/23 05:50:57;;;;;;;1.13;1.07;;;;;;;14.87;100.00;100635.31;5076719;28;20262;-78
2022/07/23 05:53:23;;;;;;;0.00;0.00;;;;;;;14.85;100.00;100632.09;5077061;28;20260;-79
2022/07/23 05:55:48;;;;;;;0.83;0.83;;;;;;;14.88;100.00;100633.38;5075566;28;20179;-82
2022/07/23 05:58:14;;;;;;;1.03;1.00;;;;;;;14.85;100.00;100634.84;5075064;28;20192;-82
2022/07/23 06:00:40;;;;;;;0.17;0.17;;;;;;;14.86;100.00;100639.22;5075606;28;20222;-82
2022/07/23 06:03:06;;;;;;;0.97;0.97;;;;;;;14.91;100.00;100632.72;5075352;28;20685;-85
2022/07/23 06:05:31;;;;;;;1.60;1.10;;;;;;;14.95;100.00;100641.09;5076804;28;20261;-82
2022/07/23 06:07:56;;;;;;;0.73;0.73;;;;;;;14.98;100.00;100643.19;5076075;28;20594;-83
2022/07/23 06:10:22;;;;;;;0.70;0.70;;;;;;;15.13;100.00;100648.88;5075359;28;20626;-84
2022/07/23 06:12:47;;;;;;;0.00;0.00;;;;;;;15.21;100.00;100638.94;5076775;28;20178;-82
2022/07/23 06:15:13;;;;;;;0.67;0.67;;;;;;;15.29;100.00;100651.00;5075209;28;20265;-84
2022/07/23 06:17:39;;;;;;;10.53;1.40;;;;;;;15.30;100.00;100647.09;5076634;28;20175;-80
2022/07/23 06:20:06;;;;;;;0.20;0.20;;;;;;;15.36;100.00;100652.06;5076364;28;20186;-85
2022/07/23 06:22:31;;;;;;;0.10;0.10;;;;;;;15.42;100.00;100653.47;5074252;28;20273;-82
2022/07/23 06:24:56;;;;;;;2.00;0.43;;;;;;;15.44;100.00;100648.41;5073474;28;20262;-78
2022/07/23 06:27:22;;;;;;;0.20;0.20;;;;;;;15.51;100.00;100647.88;5073313;28;20212;-83
2022/07/23 06:29:47;;;;;;;0.37;0.37;;;;;;;15.58;100.00;100647.31;5073065;28;20213;-83
2022/07/23 06:32:12;;;;;;;0.00;0.00;;;;;;;15.71;100.00;100646.22;5072097;28;20182;-80
2022/07/23 06:34:38;;;;;;;0.00;0.00;;;;;;;15.85;100.00;100646.72;5073527;28;20178;-84
2022/07/23 06:37:03;;;;;;;0.87;0.63;;;;;;;15.91;95.95;100655.56;5073217;28;20601;-81
2022/07/23 06:39:29;;;;;;;0.40;0.40;;;;;;;15.83;92.58;100657.28;5072734;28;20275;-82
2022/07/23 06:41:54;;;;;;;0.00;0.00;;;;;;;15.87;93.07;100654.66;5073200;28;20191;-82
2022/07/23 06:44:20;;;;;;;0.00;0.00;;;;;;;15.94;94.81;100668.69;5073036;28;20171;-83
2022/07/23 06:46:45;;;;;;;0.00;0.00;;;;;;;15.89;92.68;100664.19;5072773;28;20231;-80
2022/07/23 06:49:10;;;;;;;0.00;0.00;;;;;;;16.01;94.04;100666.94;5072062;28;20629;-80
2022/07/23 06:51:36;;;;;;;0.10;0.10;;;;;;;16.08;92.94;100668.34;5072361;28;20186;-81
2022/07/23 06:54:02;;;;;;;0.10;0.10;;;;;;;16.12;92.15;100667.31;5070244;28;20194;-75
2022/07/23 06:56:27;;;;;;;0.00;0.00;;;;;;;16.23;92.08;100675.94;5070062;28;20540;-75
2022/07/23 06:58:52;;;;;;;0.20;0.20;;;;;;;16.24;91.41;100681.13;5071075;28;20174;-74
2022/07/23 07:01:18;;;;;;;0.00;0.00;;;;;;;16.26;91.84;100678.00;5071744;28;20697;-76
2022/07/23 07:03:43;;;;;;;1.20;1.20;;;;;;;16.33;91.41;100683.75;5072695;28;20613;-74
2022/07/23 07:06:08;;;;;;;0.20;0.20;;;;;;;16.35;90.64;100676.75;5071406;28;20181;-76
2022/07/23 07:08:34;;;;;;;0.20;0.20;;;;;;;16.43;89.91;100676.97;5071678;28;20613;-75
2022/07/23 07:10:59;;;;;;;0.00;0.00;;;;;;;16.49;88.21;100675.59;5072674;28;20204;-76
2022/07/23 07:13:25;;;;;;;0.43;0.43;;;;;;;16.60;88.31;100680.28;5072496;28;20182;-75
2022/07/23 07:15:50;;;;;;;0.27;0.27;;;;;;;16.66;87.43;100684.44;5071072;28;20210;-75
2022/07/23 07:18:16;;;;;;;0.00;0.00;;;;;;;16.80;87.92;100684.13;5070592;28;20214;-80
2022/07/23 07:20:41;;;;;;;0.30;0.30;;;;;;;16.86;86.72;100696.50;5070474;28;20179;-77
2022/07/23 07:23:06;;;;;;;0.20;0.20;;;;;;;16.97;85.54;100694.09;5070471;28;20236;-78
2022/07/23 07:25:32;;;;;;;0.27;0.27;;;;;;;17.10;85.03;100689.34;5072352;28;20233;-74
2022/07/23 07:27:57;;;;;;;0.90;0.90;;;;;;;17.08;83.97;100695.22;5070668;28;20210;-74
2022/07/23 07:30:23;;;;;;;0.23;0.23;;;;;;;17.17;83.90;100695.88;5070536;28;20231;-76
2022/07/23 07:32:48;;;;;;;0.07;0.07;;;;;;;17.22;82.80;100703.13;5072203;28;20208;-78
2022/07/23 07:35:13;;;;;;;0.87;0.40;;;;;;;17.35;83.29;100690.06;5070882;28;20174;-81
2022/07/23 07:37:39;;;;;;;0.00;0.00;;;;;;;17.53;80.93;100694.13;5070477;28;20501;-75
2022/07/23 07:40:04;;;;;;;0.73;0.73;;;;;;;17.47;78.61;100703.81;5071322;28;20193;-79
2022/07/23 07:42:32;;;;;;;0.20;0.20;;;;;;;17.48;78.33;100699.91;5070151;28;20217;-79
2022/07/23 07:44:57;;;;;;;0.37;0.37;;;;;;;17.67;79.65;100699.25;5071620;28;20174;-75
2022/07/23 07:47:22;;;;;;;0.40;0.40;;;;;;;17.76;77.87;100700.72;5071058;28;20210;-76
2022/07/23 07:49:48;;;;;;;0.00;0.00;;;;;;;18.05;76.55;100707.81;5070963;28;20183;-76
2022/07/23 07:52:13;;;;;;;1.37;1.27;;;;;;;18.01;75.38;100717.97;5071404;28;20224;-79
2022/07/23 07:54:39;;;;;;;0.40;0.40;;;;;;;17.89;74.44;100717.25;5071270;28;20185;-80
2022/07/23 07:57:04;;;;;;;1.87;0.90;;;;;;;17.89;73.90;100717.25;5069640;28;20193;-75
2022/07/23 07:59:29;;;;;;;0.00;0.00;;;;;;;17.99;75.58;100719.50;5069492;28;20216;-75
2022/07/23 08:01:55;;;;;;;0.00;0.00;;;;;;;18.07;74.76;100712.97;5070027;28;20175;-78
2022/07/23 08:04:20;;;;;;;0.20;0.20;;;;;;;18.18;73.15;100708.53;5071173;28;20642;-76
2022/07/23 08:06:46;;;;;;;0.20;0.20;;;;;;;18.23;72.50;100708.28;5069317;28;20607;-80
2022/07/23 08:09:11;;;;;;;0.00;0.00;;;;;;;18.32;73.55;100716.41;5068261;28;20202;-74
2022/07/23 08:11:37;;;;;;;0.20;0.20;;;;;;;18.40;72.23;100724.53;5071077;28;20182;-76
2022/07/23 08:14:02;;;;;;;0.00;0.00;;;;;;;18.45;72.23;100720.69;5071102;28;20178;-77
2022/07/23 08:16:27;;;;;;;0.70;0.33;;;;;;;18.64;72.69;100725.50;5069582;28;20175;-75
2022/07/23 08:18:53;;;;;;;0.20;0.00;;;;;;;18.55;72.46;100727.66;5070232;28;20175;-76
2022/07/23 08:21:18;;;;;;;0.57;0.57;;;;;;;18.27;71.74;100734.06;5069552;28;20626;-79
2022/07/23 08:23:44;;;;;;;0.10;0.10;;;;;;;18.11;72.92;100730.50;5070696;28;20249;-77
2022/07/23 08:26:09;;;;;;;1.13;0.50;;;;;;;18.27;73.38;100724.97;5070905;28;20228;-75
2022/07/23 08:28:35;;;;;;;5.43;1.07;;;;;;;18.59;73.25;100723.00;5070095;28;20206;-73
2022/07/23 08:31:00;;;;;;;0.00;0.00;;;;;;;18.79;72.64;100727.44;5069380;28;20649;-75
2022/07/23 08:33:26;;;;;;;4.93;0.50;;;;;;;18.82;71.58;100725.94;5069421;28;20200;-74
2022/07/23 08:35:52;;;;;;;0.00;0.00;;;;;;;18.73;70.37;100723.38;5071047;28;20381;-74
2022/07/23 08:38:20;;;;;;;0.00;0.00;;;;;;;18.66;71.11;100728.72;5069803;28;20213;-73
2022/07/23 08:40:50;;;;;;;0.00;0.00;;;;;;;18.81;70.86;100739.00;5065955;28;20189;-77
2022/07/23 08:43:18;;;;;;;0.00;0.00;;;;;;;19.01;69.04;100735.09;5067825;28;20178;-73
2022/07/23 08:45:45;;;;;;;0.00;0.00;;;;;;;18.93;67.64;100741.63;5063480;28;20658;-74
2022/07/23 08:48:13;;;;;;;1.03;1.03;;;;;;;18.82;69.46;100740.59;5069911;28;20202;-76
2022/07/23 08:50:44;;;;;;;0.77;0.77;;;;;;;18.76;68.42;100738.44;5070496;28;20646;-75
2022/07/23 08:53:10;;;;;;;0.70;0.70;;;;;;;19.01;68.84;100726.78;5069533;28;20178;-74
2022/07/23 08:55:35;;;;;;;0.57;0.50;;;;;;;19.14;67.95;100733.00;5068000;28;20182;-75
2022/07/23 08:58:01;;;;;;;0.33;0.27;;;;;;;18.97;68.20;100741.72;5066960;28;20213;-75
2022/07/23 09:00:26;;;;;;;0.00;0.00;;;;;;;18.90;69.23;100736.00;5069305;28;20672;-76
2022/07/23 09:02:52;;;;;;;0.03;0.03;;;;;;;19.08;68.64;100737.22;5070572;28;20178;-74
2022/07/23 09:05:18;;;;;;;0.70;0.70;;;;;;;19.21;68.98;100737.88;5070670;28;20411;-75
2022/07/23 09:08:16;;;;;;;0.40;0.30;;;;;;;19.11;66.51;100730.97;5069758;28;20613;-74
2022/07/23 09:10:56;;;;;;;0.97;0.33;;;;;;;19.20;65.83;100727.97;5070668;28;20198;-74
2022/07/23 09:13:45;;;;;;;0.10;0.03;;;;;;;19.37;66.82;100729.50;5069376;28;20213;-75
2022/07/23 09:16:15;;;;;;;0.10;0.10;;;;;;;19.18;67.17;100739.41;5070499;28;20617;-76
2022/07/23 09:18:41;;;;;;;0.00;0.00;;;;;;;19.19;67.19;100731.91;5070200;28;20217;-76
2022/07/23 09:21:12;;;;;;;0.20;0.20;;;;;;;19.30;66.37;100732.94;5069590;28;20205;-75
2022/07/23 09:23:42;;;;;;;0.23;0.23;;;;;;;19.41;65.81;100730.41;5070528;28;20258;-73
2022/07/23 09:26:24;;;;;;;0.20;0.20;;;;;;;19.51;66.56;100738.13;5069218;28;20186;-76
2022/07/23 09:28:54;;;;;;;0.40;0.40;;;;;;;19.38;66.10;100745.78;5069894;28;20214;-75
2022/07/23 09:31:20;;;;;;;1.27;0.43;;;;;;;19.24;66.09;100740.75;5070487;28;20179;-75
2022/07/23 09:33:46;;;;;;;0.40;0.40;;;;;;;19.21;66.05;100738.69;5069123;28;20189;-74
2022/07/23 09:36:11;;;;;;;0.47;0.47;;;;;;;19.28;65.95;100738.06;5070036;28;20641;-74
2022/07/23 09:38:53;;;;;;;0.40;0.40;;;;;;;19.58;66.42;100739.13;5068223;28;20224;-75
2022/07/23 09:41:18;;;;;;;0.20;0.20;;;;;;;20.02;64.24;100730.44;5069156;28;20591;-74
2022/07/23 09:43:44;;;;;;;0.10;0.10;;;;;;;20.05;62.91;100745.56;5070843;28;20177;-74
2022/07/23 09:46:25;;;;;;;0.33;0.33;;;;;;;19.67;62.52;100735.31;5070543;28;20630;-74
2022/07/23 09:48:52;;;;;;;2.40;0.60;;;;;;;19.49;63.11;100741.25;5069947;28;20206;-74
2022/07/23 09:51:25;;;;;;;0.30;0.30;;;;;;;19.37;63.13;100735.84;5068993;28;20186;-75
2022/07/23 09:53:51;;;;;;;0.00;0.00;;;;;;;19.45;62.76;100734.06;5055639;28;20520;-79
2022/07/23 09:56:19;;;;;;;0.00;0.00;;;;;;;19.77;63.56;100724.44;5065314;28;20170;-76
2022/07/23 09:58:49;;;;;;;0.63;0.10;;;;;;;20.06;63.13;100736.06;5070141;28;20279;-73
2022/07/23 10:01:15;;;;;;;0.10;0.10;;;;;;;19.83;63.35;100730.50;5073904;28;20174;-75
2022/07/23 10:03:42;;;;;;;0.10;0.10;;;;;;;19.79;64.01;100718.50;5070879;28;20190;-75
2022/07/23 10:06:09;;;;;;;0.00;0.00;;;;;;;19.83;64.74;100724.97;5061384;28;20265;-74
2022/07/23 10:08:35;;;;;;;0.10;0.10;;;;;;;19.86;64.65;100732.53;5070849;28;20627;-73
2022/07/23 10:11:02;;;;;;;0.00;0.00;;;;;;;20.11;64.17;100727.44;5073868;28;20175;-75
2022/07/23 10:15:59;;;;;;;0.13;0.13;;;;;;;20.49;62.26;100721.78;5073771;28;20158;-74
2022/07/23 10:18:25;;;;;;;1.53;1.43;;;;;;;20.38;60.73;100731.88;5071890;28;20582;-74
2022/07/23 10:20:51;;;;;;;0.47;0.47;;;;;;;20.17;61.64;100735.09;5072344;28;20281;-76
2022/07/23 10:23:28;;;;;;;0.00;0.00;;;;;;;20.18;62.03;100733.13;5072160;28;20178;-75
2022/07/23 10:26:10;;;;;;;0.30;0.30;;;;;;;20.24;61.75;100733.59;5072107;28;20166;-74
2022/07/23 10:28:45;;;;;;;0.00;0.00;;;;;;;20.52;62.08;100741.63;5073169;28;20222;-74
2022/07/23 10:31:13;;;;;;;0.10;0.10;;;;;;;20.68;60.86;100729.22;5073303;28;20231;-75
2022/07/23 10:33:55;;;;;;;0.00;0.00;;;;;;;20.77;59.33;100737.28;5072040;28;20170;-75
2022/07/23 10:36:42;;;;;;;0.20;0.20;;;;;;;20.61;58.41;100736.66;5073064;28;20167;-76
2022/07/23 10:39:12;;;;;;;1.63;0.90;;;;;;;20.65;60.54;100732.75;5072951;28;20178;-77
2022/07/23 10:41:41;;;;;;;0.10;0.10;;;;;;;21.05;58.96;100731.38;5073422;28;20171;-76
2022/07/23 10:44:12;;;;;;;0.67;0.20;;;;;;;21.11;58.37;100738.19;5069889;28;20178;-75
2022/07/23 10:49:41;;;;;;;0.00;0.00;;;;;;;20.85;59.29;100741.78;5072706;28;20185;-75
2022/07/23 10:52:26;;;;;;;0.97;0.97;;;;;;;20.87;58.66;100738.63;5071584;28;20187;-75
2022/07/23 10:55:16;;;;;;;0.07;0.07;;;;;;;20.71;58.35;100736.81;5071645;28;20273;-76
2022/07/23 10:57:51;;;;;;;0.40;0.40;;;;;;;20.49;59.33;100732.09;5071251;28;20223;-74
2022/07/23 11:00:22;;;;;;;0.00;0.00;;;;;;;20.42;59.48;100723.66;5071357;28;20205;-74
2022/07/23 11:02:50;;;;;;;0.17;0.17;;;;;;;20.76;60.23;100728.16;5072758;28;20250;-75
2022/07/23 11:05:21;;;;;;;0.00;0.00;;;;;;;20.70;59.63;100732.44;5072741;28;20221;-74
2022/07/23 11:08:10;;;;;;;0.13;0.10;;;;;;;20.64;59.28;100730.34;5070387;28;20206;-75
2022/07/23 11:10:51;;;;;;;0.10;0.10;;;;;;;20.87;58.92;100724.75;5070804;28;20175;-73
2022/07/23 11:13:22;;;;;;;0.17;0.17;;;;;;;20.90;57.75;100732.34;5072608;28;20167;-74
2022/07/23 11:16:06;;;;;;;0.03;0.03;;;;;;;20.80;58.87;100725.44;5072864;28;20198;-73
2022/07/23 11:18:56;;;;;;;0.30;0.30;;;;;;;20.87;58.09;100730.31;5071109;28;20582;-77
2022/07/23 11:21:26;;;;;;;0.10;0.10;;;;;;;20.86;58.47;100726.72;5071168;28;20193;-74
2022/07/23 11:24:03;;;;;;;0.00;0.00;;;;;;;21.23;57.70;100731.59;5072555;28;20160;-74